sensor_id;sensor_type;location;lat;lon;timestamp;pressure;altitude;pressure_sealevel;temperature;humidity
37238;BME280;23129;49.662;8.448;2023-06-22T00:01:32;100645.00;;;24.91;70.43
37238;BME280;23129;49.662;8.448;2023-06-22T00:04:00;100646.72;;;24.92;70.43
37238;BME280;23129;49.662;8.448;2023-06-22T00:06:30;100650.09;;;24.94;70.59
37238;BME280;23129;49.662;8.448;2023-06-22T00:08:59;100652.09;;;24.92;70.42
37238;BME280;23129;49.662;8.448;2023-06-22T00:11:28;100661.09;;;24.91;70.47
37238;BME280;23129;49.662;8.448;2023-06-22T00:13:56;100677.47;;;24.88;70.67
37238;BME280;23129;49.662;8.448;2023-06-22T00:16:25;100690.19;;;24.86;71.10
37238;BME280;23129;49.662;8.448;2023-06-22T00:18:53;100699.34;;;24.83;71.10
37238;BME280;23129;49.662;8.448;2023-06-22T00:21:22;100711.28;;;24.79;71.42
37238;BME280;23129;49.662;8.448;2023-06-22T00:23:52;100741.94;;;24.77;71.75
37238;BME280;23129;49.662;8.448;2023-06-22T00:26:20;100754.97;;;24.70;72.25
37238;BME280;23129;49.662;8.448;2023-06-22T00:28:49;100755.63;;;24.63;72.80
37238;BME280;23129;49.662;8.448;2023-06-22T00:31:18;100745.50;;;24.55;73.14
37238;BME280;23129;49.662;8.448;2023-06-22T00:33:46;100734.06;;;24.53;73.74
37238;BME280;23129;49.662;8.448;2023-06-22T00:36:17;100714.44;;;24.52;73.77
37238;BME280;23129;49.662;8.448;2023-06-22T00:38:46;100709.06;;;24.52;73.58
37238;BME280;23129;49.662;8.448;2023-06-22T00:41:19;100719.78;;;24.52;74.28
37238;BME280;23129;49.662;8.448;2023-06-22T00:43:47;100761.25;;;24.48;74.44
37238;BME280;23129;49.662;8.448;2023-06-22T00:46:16;100823.50;;;24.41;74.86
37238;BME280;23129;49.662;8.448;2023-06-22T00:48:45;100878.00;;;24.30;75.42
37238;BME280;23129;49.662;8.448;2023-06-22T00:51:13;100926.00;;;24.22;76.25
37238;BME280;23129;49.662;8.448;2023-06-22T00:53:42;100942.81;;;24.12;77.03
37238;BME280;23129;49.662;8.448;2023-06-22T00:56:11;100949.63;;;24.05;77.45
37238;BME280;23129;49.662;8.448;2023-06-22T00:58:41;100899.78;;;24.03;77.92
37238;BME280;23129;49.662;8.448;2023-06-22T01:01:10;100825.84;;;24.00;78.05
37238;BME280;23129;49.662;8.448;2023-06-22T01:03:38;100777.34;;;23.92;78.07
37238;BME280;23129;49.662;8.448;2023-06-22T01:06:10;100742.88;;;23.76;79.22
37238;BME280;23129;49.662;8.448;2023-06-22T01:08:46;100689.88;;;23.57;80.04
37238;BME280;23129;49.662;8.448;2023-06-22T01:11:22;100630.44;;;23.41;80.62
37238;BME280;23129;49.662;8.448;2023-06-22T01:14:02;100569.94;;;23.27;81.40
37238;BME280;23129;49.662;8.448;2023-06-22T01:16:35;100565.72;;;23.13;81.90
37238;BME280;23129;49.662;8.448;2023-06-22T01:19:16;100590.75;;;23.01;82.71
37238;BME280;23129;49.662;8.448;2023-06-22T01:21:50;100616.47;;;22.91;83.23
37238;BME280;23129;49.662;8.448;2023-06-22T01:24:26;100636.41;;;22.87;83.58
37238;BME280;23129;49.662;8.448;2023-06-22T01:27:04;100657.28;;;22.82;83.91
37238;BME280;23129;49.662;8.448;2023-06-22T01:29:41;100694.25;;;22.76;84.13
37238;BME280;23129;49.662;8.448;2023-06-22T01:32:10;100701.75;;;22.71;84.61
37238;BME280;23129;49.662;8.448;2023-06-22T01:34:40;100703.69;;;22.69;84.78
37238;BME280;23129;49.662;8.448;2023-06-22T01:37:09;100700.25;;;22.67;85.04
37238;BME280;23129;49.662;8.448;2023-06-22T01:39:38;100696.50;;;22.70;85.01
37238;BME280;23129;49.662;8.448;2023-06-22T01:42:07;100709.03;;;22.69;85.37
37238;BME280;23129;49.662;8.448;2023-06-22T01:44:42;100692.97;;;22.69;85.41
37238;BME280;23129;49.662;8.448;2023-06-22T01:47:11;100687.88;;;22.66;85.96
37238;BME280;23129;49.662;8.448;2023-06-22T01:49:43;100688.09;;;22.63;86.38
37238;BME280;23129;49.662;8.448;2023-06-22T01:52:12;100687.25;;;22.63;86.72
37238;BME280;23129;49.662;8.448;2023-06-22T01:54:41;100680.94;;;22.64;86.79
37238;BME280;23129;49.662;8.448;2023-06-22T01:57:10;100684.44;;;22.64;87.01
37238;BME280;23129;49.662;8.448;2023-06-22T01:59:48;100692.22;;;22.67;86.92
37238;BME280;23129;49.662;8.448;2023-06-22T02:02:20;100693.22;;;22.66;87.21
37238;BME280;23129;49.662;8.448;2023-06-22T02:04:57;100694.19;;;22.65;87.36
37238;BME280;23129;49.662;8.448;2023-06-22T02:07:33;100682.00;;;22.61;87.27
37238;BME280;23129;49.662;8.448;2023-06-22T02:10:02;100688.63;;;22.68;86.68
37238;BME280;23129;49.662;8.448;2023-06-22T02:12:32;100698.84;;;22.50;87.76
37238;BME280;23129;49.662;8.448;2023-06-22T02:15:05;100695.56;;;22.47;88.00
37238;BME280;23129;49.662;8.448;2023-06-22T02:17:35;100696.72;;;22.43;88.00
37238;BME280;23129;49.662;8.448;2023-06-22T02:20:05;100687.25;;;22.39;88.64
37238;BME280;23129;49.662;8.448;2023-06-22T02:22:36;100688.22;;;22.38;88.64
37238;BME280;23129;49.662;8.448;2023-06-22T02:25:04;100689.28;;;22.35;88.98
37238;BME280;23129;49.662;8.448;2023-06-22T02:27:33;100686.72;;;22.33;89.14
37238;BME280;23129;49.662;8.448;2023-06-22T02:30:04;100689.41;;;22.33;89.05
37238;BME280;23129;49.662;8.448;2023-06-22T02:32:32;100678.19;;;22.28;89.31
37238;BME280;23129;49.662;8.448;2023-06-22T02:35:01;100681.81;;;22.27;89.35
37238;BME280;23129;49.662;8.448;2023-06-22T02:37:32;100676.72;;;22.24;89.79
37238;BME280;23129;49.662;8.448;2023-06-22T02:40:01;100677.56;;;22.25;89.76
37238;BME280;23129;49.662;8.448;2023-06-22T02:42:31;100674.03;;;22.24;89.97
37238;BME280;23129;49.662;8.448;2023-06-22T02:45:00;100673.28;;;22.22;90.07
37238;BME280;23129;49.662;8.448;2023-06-22T02:47:30;100666.00;;;22.24;90.07
37238;BME280;23129;49.662;8.448;2023-06-22T02:49:59;100664.31;;;22.23;90.41
37238;BME280;23129;49.662;8.448;2023-06-22T02:52:28;100667.94;;;22.22;90.38
37238;BME280;23129;49.662;8.448;2023-06-22T02:54:57;100667.22;;;22.20;90.48
37238;BME280;23129;49.662;8.448;2023-06-22T02:57:26;100658.44;;;22.18;90.70
37238;BME280;23129;49.662;8.448;2023-06-22T02:59:55;100653.94;;;22.19;90.91
37238;BME280;23129;49.662;8.448;2023-06-22T03:02:23;100652.44;;;22.15;91.01
37238;BME280;23129;49.662;8.448;2023-06-22T03:04:55;100654.09;;;22.17;91.18
37238;BME280;23129;49.662;8.448;2023-06-22T03:07:23;100655.97;;;22.15;91.11
37238;BME280;23129;49.662;8.448;2023-06-22T03:09:54;100651.69;;;22.13;91.26
37238;BME280;23129;49.662;8.448;2023-06-22T03:12:22;100646.59;;;22.09;91.32
37238;BME280;23129;49.662;8.448;2023-06-22T03:14:54;100649.38;;;22.08;91.38
37238;BME280;23129;49.662;8.448;2023-06-22T03:17:22;100644.25;;;22.05;91.53
37238;BME280;23129;49.662;8.448;2023-06-22T03:19:51;100638.25;;;22.01;91.80
37238;BME280;23129;49.662;8.448;2023-06-22T03:22:21;100648.09;;;22.01;92.07
37238;BME280;23129;49.662;8.448;2023-06-22T03:24:50;100639.38;;;21.99;92.08
37238;BME280;23129;49.662;8.448;2023-06-22T03:27:18;100642.13;;;21.97;92.08
37238;BME280;23129;49.662;8.448;2023-06-22T03:29:47;100634.25;;;21.96;92.09
37238;BME280;23129;49.662;8.448;2023-06-22T03:32:15;100622.91;;;21.92;92.18
37238;BME280;23129;49.662;8.448;2023-06-22T03:34:44;100631.03;;;21.91;92.40
37238;BME280;23129;49.662;8.448;2023-06-22T03:37:14;100623.97;;;21.89;92.42
37238;BME280;23129;49.662;8.448;2023-06-22T03:39:44;100619.59;;;21.88;92.78
37238;BME280;23129;49.662;8.448;2023-06-22T03:42:14;100622.50;;;21.85;92.71
37238;BME280;23129;49.662;8.448;2023-06-22T03:44:42;100628.81;;;21.84;92.98
37238;BME280;23129;49.662;8.448;2023-06-22T03:47:11;100635.97;;;21.84;93.10
37238;BME280;23129;49.662;8.448;2023-06-22T03:49:41;100640.44;;;21.83;93.08
37238;BME280;23129;49.662;8.448;2023-06-22T03:52:10;100635.09;;;21.83;93.16
37238;BME280;23129;49.662;8.448;2023-06-22T03:54:39;100640.44;;;21.83;93.26
37238;BME280;23129;49.662;8.448;2023-06-22T03:57:08;100645.69;;;21.85;93.43
37238;BME280;23129;49.662;8.448;2023-06-22T03:59:38;100645.78;;;21.83;93.58
37238;BME280;23129;49.662;8.448;2023-06-22T04:02:07;100641.31;;;21.84;93.66
37238;BME280;23129;49.662;8.448;2023-06-22T04:04:35;100645.78;;;21.83;93.69
37238;BME280;23129;49.662;8.448;2023-06-22T04:07:06;100645.69;;;21.85;93.70
37238;BME280;23129;49.662;8.448;2023-06-22T04:09:35;100651.03;;;21.85;93.72
37238;BME280;23129;49.662;8.448;2023-06-22T04:12:04;100645.56;;;21.86;93.98
37238;BME280;23129;49.662;8.448;2023-06-22T04:14:34;100650.69;;;21.89;93.93
37238;BME280;23129;49.662;8.448;2023-06-22T04:17:03;100647.06;;;21.91;94.28
37238;BME280;23129;49.662;8.448;2023-06-22T04:19:32;100642.25;;;21.96;94.19
37238;BME280;23129;49.662;8.448;2023-06-22T04:22:01;100643.81;;;21.98;94.16
37238;BME280;23129;49.662;8.448;2023-06-22T04:24:29;100641.06;;;22.00;94.20
37238;BME280;23129;49.662;8.448;2023-06-22T04:26:58;100640.09;;;22.01;94.26
37238;BME280;23129;49.662;8.448;2023-06-22T04:29:30;100647.16;;;22.02;94.26
37238;BME280;23129;49.662;8.448;2023-06-22T04:32:00;100643.28;;;22.06;94.45
37238;BME280;23129;49.662;8.448;2023-06-22T04:34:33;100650.31;;;22.07;94.48
37238;BME280;23129;49.662;8.448;2023-06-22T04:37:02;100638.91;;;22.05;94.42
37238;BME280;23129;49.662;8.448;2023-06-22T04:39:30;100639.75;;;22.05;94.67
37238;BME280;23129;49.662;8.448;2023-06-22T04:41:59;100635.28;;;22.06;94.59
37238;BME280;23129;49.662;8.448;2023-06-22T04:44:28;100638.69;;;22.08;94.93
37238;BME280;23129;49.662;8.448;2023-06-22T04:46:58;100650.00;;;22.11;95.07
37238;BME280;23129;49.662;8.448;2023-06-22T04:49:31;100642.72;;;22.14;95.01
37238;BME280;23129;49.662;8.448;2023-06-22T04:52:03;100645.28;;;22.15;94.83
37238;BME280;23129;49.662;8.448;2023-06-22T04:54:33;100636.28;;;22.16;95.06
37238;BME280;23129;49.662;8.448;2023-06-22T04:57:02;100624.69;;;22.17;95.40
37238;BME280;23129;49.662;8.448;2023-06-22T04:59:32;100627.97;;;22.21;95.33
37238;BME280;23129;49.662;8.448;2023-06-22T05:02:02;100625.84;;;22.26;95.45
37238;BME280;23129;49.662;8.448;2023-06-22T05:04:32;100614.78;;;22.30;95.53
37238;BME280;23129;49.662;8.448;2023-06-22T05:07:03;100624.50;;;22.31;95.26
37238;BME280;23129;49.662;8.448;2023-06-22T05:09:32;100617.13;;;22.35;95.70
37238;BME280;23129;49.662;8.448;2023-06-22T05:12:03;100627.38;;;22.41;95.72
37238;BME280;23129;49.662;8.448;2023-06-22T05:14:34;100612.91;;;22.44;95.75
37238;BME280;23129;49.662;8.448;2023-06-22T05:17:03;100605.38;;;22.49;95.88
37238;BME280;23129;49.662;8.448;2023-06-22T05:19:44;100595.94;;;22.56;95.73
37238;BME280;23129;49.662;8.448;2023-06-22T05:22:15;100594.88;;;22.59;95.65
37238;BME280;23129;49.662;8.448;2023-06-22T05:24:44;100600.59;;;22.65;96.10
37238;BME280;23129;49.662;8.448;2023-06-22T05:27:13;100596.72;;;22.69;95.96
37238;BME280;23129;49.662;8.448;2023-06-22T05:29:42;100609.50;;;22.77;96.14
37238;BME280;23129;49.662;8.448;2023-06-22T05:32:11;100595.53;;;22.85;95.91
37238;BME280;23129;49.662;8.448;2023-06-22T05:34:39;100586.19;;;22.90;95.89
37238;BME280;23129;49.662;8.448;2023-06-22T05:37:09;100588.31;;;22.98;95.71
37238;BME280;23129;49.662;8.448;2023-06-22T05:39:38;100588.91;;;23.01;96.00
37238;BME280;23129;49.662;8.448;2023-06-22T05:42:07;100590.28;;;23.07;95.92
37238;BME280;23129;49.662;8.448;2023-06-22T05:44:37;100595.84;;;23.15;95.71
37238;BME280;23129;49.662;8.448;2023-06-22T05:47:07;100589.06;;;23.22;95.59
37238;BME280;23129;49.662;8.448;2023-06-22T05:49:36;100591.03;;;23.32;95.60
37238;BME280;23129;49.662;8.448;2023-06-22T05:52:05;100584.19;;;23.39;95.46
37238;BME280;23129;49.662;8.448;2023-06-22T05:54:35;100590.53;;;23.49;95.09
37238;BME280;23129;49.662;8.448;2023-06-22T05:57:04;100591.88;;;23.55;95.31
37238;BME280;23129;49.662;8.448;2023-06-22T05:59:33;100592.09;;;23.63;94.82
37238;BME280;23129;49.662;8.448;2023-06-22T06:02:01;100576.44;;;23.69;94.78
37238;BME280;23129;49.662;8.448;2023-06-22T06:04:30;100584.69;;;23.78;94.93
37238;BME280;23129;49.662;8.448;2023-06-22T06:06:58;100583.94;;;23.87;94.45
37238;BME280;23129;49.662;8.448;2023-06-22T06:09:27;100581.47;;;23.95;94.25
37238;BME280;23129;49.662;8.448;2023-06-22T06:11:57;100578.78;;;24.06;94.58
37238;BME280;23129;49.662;8.448;2023-06-22T06:14:25;100581.69;;;24.14;94.14
37238;BME280;23129;49.662;8.448;2023-06-22T06:16:54;100587.25;;;24.23;93.81
37238;BME280;23129;49.662;8.448;2023-06-22T06:19:22;100594.50;;;24.32;93.64
37238;BME280;23129;49.662;8.448;2023-06-22T06:21:51;100592.06;;;24.40;93.70
37238;BME280;23129;49.662;8.448;2023-06-22T06:24:20;100587.66;;;24.50;93.11
37238;BME280;23129;49.662;8.448;2023-06-22T06:26:48;100581.53;;;24.59;93.24
37238;BME280;23129;49.662;8.448;2023-06-22T06:29:18;100583.28;;;24.70;92.69
37238;BME280;23129;49.662;8.448;2023-06-22T06:31:46;100579.81;;;24.79;92.80
37238;BME280;23129;49.662;8.448;2023-06-22T06:34:15;100575.50;;;24.88;92.37
37238;BME280;23129;49.662;8.448;2023-06-22T06:36:44;100572.75;;;24.99;91.87
37238;BME280;23129;49.662;8.448;2023-06-22T06:39:12;100573.63;;;25.10;91.71
37238;BME280;23129;49.662;8.448;2023-06-22T06:41:40;100555.63;;;25.21;91.58
37238;BME280;23129;49.662;8.448;2023-06-22T06:44:16;100558.22;;;25.33;90.55
37238;BME280;23129;49.662;8.448;2023-06-22T06:46:45;100569.00;;;25.42;90.54
37238;BME280;23129;49.662;8.448;2023-06-22T06:49:14;100575.28;;;25.53;90.17
37238;BME280;23129;49.662;8.448;2023-06-22T06:51:42;100561.03;;;25.62;89.70
37238;BME280;23129;49.662;8.448;2023-06-22T06:54:11;100566.28;;;25.73;89.35
37238;BME280;23129;49.662;8.448;2023-06-22T06:56:40;100569.13;;;25.81;89.06
37238;BME280;23129;49.662;8.448;2023-06-22T06:59:17;100555.88;;;25.89;88.54
37238;BME280;23129;49.662;8.448;2023-06-22T07:01:45;100552.78;;;25.94;87.93
37238;BME280;23129;49.662;8.448;2023-06-22T07:04:16;100555.88;;;25.99;87.96
37238;BME280;23129;49.662;8.448;2023-06-22T07:06:44;100551.66;;;26.06;87.65
37238;BME280;23129;49.662;8.448;2023-06-22T07:09:13;100554.75;;;26.11;87.55
37238;BME280;23129;49.662;8.448;2023-06-22T07:11:42;100557.03;;;26.16;87.44
37238;BME280;23129;49.662;8.448;2023-06-22T07:14:10;100554.78;;;26.21;87.22
37238;BME280;23129;49.662;8.448;2023-06-22T07:16:40;100548.84;;;26.27;86.87
37238;BME280;23129;49.662;8.448;2023-06-22T07:19:10;100549.25;;;26.32;86.73
37238;BME280;23129;49.662;8.448;2023-06-22T07:21:39;100541.47;;;26.39;86.46
37238;BME280;23129;49.662;8.448;2023-06-22T07:24:08;100539.78;;;26.48;86.09
37238;BME280;23129;49.662;8.448;2023-06-22T07:26:36;100531.84;;;26.56;85.33
37238;BME280;23129;49.662;8.448;2023-06-22T07:29:05;100540.22;;;26.62;85.03
37238;BME280;23129;49.662;8.448;2023-06-22T07:31:34;100535.78;;;26.71;84.79
37238;BME280;23129;49.662;8.448;2023-06-22T07:34:03;100528.56;;;26.81;84.35
37238;BME280;23129;49.662;8.448;2023-06-22T07:36:33;100528.97;;;26.86;83.78
37238;BME280;23129;49.662;8.448;2023-06-22T07:39:03;100531.75;;;26.95;83.63
37238;BME280;23129;49.662;8.448;2023-06-22T07:41:32;100540.38;;;27.08;83.12
37238;BME280;23129;49.662;8.448;2023-06-22T07:44:01;100544.00;;;27.26;82.93
37238;BME280;23129;49.662;8.448;2023-06-22T07:46:30;100537.69;;;27.45;82.46
37238;BME280;23129;49.662;8.448;2023-06-22T07:48:58;100541.91;;;27.75;81.82
37238;BME280;23129;49.662;8.448;2023-06-22T07:51:29;100538.09;;;28.32;80.29
37238;BME280;23129;49.662;8.448;2023-06-22T07:53:58;100542.63;;;28.93;78.71
37238;BME280;23129;49.662;8.448;2023-06-22T07:56:26;100536.72;;;29.58;76.61
37238;BME280;23129;49.662;8.448;2023-06-22T07:58:55;100526.88;;;30.08;75.01
37238;BME280;23129;49.662;8.448;2023-06-22T08:01:25;100518.97;;;30.55;73.85
37238;BME280;23129;49.662;8.448;2023-06-22T08:03:54;100524.50;;;30.95;72.36
37238;BME280;23129;49.662;8.448;2023-06-22T08:06:22;100531.16;;;31.31;71.07
37238;BME280;23129;49.662;8.448;2023-06-22T08:08:52;100521.94;;;31.49;70.43
37238;BME280;23129;49.662;8.448;2023-06-22T08:11:22;100514.75;;;31.64;69.94
37238;BME280;23129;49.662;8.448;2023-06-22T08:13:52;100515.63;;;31.88;69.21
37238;BME280;23129;49.662;8.448;2023-06-22T08:16:22;100507.78;;;32.16;68.13
37238;BME280;23129;49.662;8.448;2023-06-22T08:18:51;100499.22;;;32.50;66.88
37238;BME280;23129;49.662;8.448;2023-06-22T08:21:20;100482.28;;;32.78;65.75
37238;BME280;23129;49.662;8.448;2023-06-22T08:23:49;100488.56;;;32.93;64.96
37238;BME280;23129;49.662;8.448;2023-06-22T08:26:19;100485.59;;;33.17;64.02
37238;BME280;23129;49.662;8.448;2023-06-22T08:28:47;100481.59;;;33.50;62.70
37238;BME280;23129;49.662;8.448;2023-06-22T08:31:17;100481.84;;;33.70;61.67
37238;BME280;23129;49.662;8.448;2023-06-22T08:33:46;100494.28;;;33.79;60.76
37238;BME280;23129;49.662;8.448;2023-06-22T08:36:16;100493.06;;;33.81;60.45
37238;BME280;23129;49.662;8.448;2023-06-22T08:38:46;100484.50;;;33.84;59.59
37238;BME280;23129;49.662;8.448;2023-06-22T08:41:21;100481.41;;;33.88;58.35
37238;BME280;23129;49.662;8.448;2023-06-22T08:43:49;100488.84;;;34.00;57.92
37238;BME280;23129;49.662;8.448;2023-06-22T08:46:18;100485.75;;;34.03;57.53
37238;BME280;23129;49.662;8.448;2023-06-22T08:48:49;100477.28;;;33.98;57.13
37238;BME280;23129;49.662;8.448;2023-06-22T08:51:18;100479.97;;;33.92;57.01
37238;BME280;23129;49.662;8.448;2023-06-22T08:53:47;100494.41;;;33.92;56.52
37238;BME280;23129;49.662;8.448;2023-06-22T08:56:15;100478.75;;;34.16;55.97
37238;BME280;23129;49.662;8.448;2023-06-22T08:58:45;100468.56;;;34.24;55.61
37238;BME280;23129;49.662;8.448;2023-06-22T09:01:14;100469.16;;;34.20;55.07
37238;BME280;23129;49.662;8.448;2023-06-22T09:03:43;100465.88;;;34.31;54.42
37238;BME280;23129;49.662;8.448;2023-06-22T09:06:11;100467.41;;;34.62;53.14
37238;BME280;23129;49.662;8.448;2023-06-22T09:08:42;100469.34;;;34.68;53.07
37238;BME280;23129;49.662;8.448;2023-06-22T09:11:10;100464.44;;;34.91;52.00
37238;BME280;23129;49.662;8.448;2023-06-22T09:13:39;100459.44;;;35.02;51.58
37238;BME280;23129;49.662;8.448;2023-06-22T09:16:09;100451.91;;;35.04;51.34
37238;BME280;23129;49.662;8.448;2023-06-22T09:18:39;100447.44;;;34.89;51.07
37238;BME280;23129;49.662;8.448;2023-06-22T09:21:07;100454.06;;;34.73;51.26
37238;BME280;23129;49.662;8.448;2023-06-22T09:23:36;100436.97;;;34.99;50.18
37238;BME280;23129;49.662;8.448;2023-06-22T09:26:05;100445.13;;;35.34;49.13
37238;BME280;23129;49.662;8.448;2023-06-22T09:28:34;100450.28;;;35.64;47.94
37238;BME280;23129;49.662;8.448;2023-06-22T09:31:02;100448.84;;;35.95;47.13
37238;BME280;23129;49.662;8.448;2023-06-22T09:33:32;100457.09;;;36.08;46.55
37238;BME280;23129;49.662;8.448;2023-06-22T09:36:01;100452.84;;;36.25;46.40
37238;BME280;23129;49.662;8.448;2023-06-22T09:38:29;100444.03;;;36.50;45.54
37238;BME280;23129;49.662;8.448;2023-06-22T09:40:58;100438.75;;;36.68;45.37
37238;BME280;23129;49.662;8.448;2023-06-22T09:43:27;100435.50;;;36.91;44.84
37238;BME280;23129;49.662;8.448;2023-06-22T09:45:56;100417.97;;;37.12;44.36
37238;BME280;23129;49.662;8.448;2023-06-22T09:48:24;100408.84;;;37.32;43.89
37238;BME280;23129;49.662;8.448;2023-06-22T09:50:54;100401.59;;;37.51;43.45
37238;BME280;23129;49.662;8.448;2023-06-22T09:53:23;100399.91;;;37.50;42.63
37238;BME280;23129;49.662;8.448;2023-06-22T09:55:51;100394.53;;;37.30;42.63
37238;BME280;23129;49.662;8.448;2023-06-22T09:58:20;100396.03;;;37.26;42.76
37238;BME280;23129;49.662;8.448;2023-06-22T10:00:48;100398.00;;;37.12;42.52
37238;BME280;23129;49.662;8.448;2023-06-22T10:03:17;100400.53;;;37.13;42.11
37238;BME280;23129;49.662;8.448;2023-06-22T10:05:46;100384.91;;;37.20;41.49
37238;BME280;23129;49.662;8.448;2023-06-22T10:08:15;100376.03;;;37.25;41.36
37238;BME280;23129;49.662;8.448;2023-06-22T10:10:44;100378.22;;;37.48;41.09
37238;BME280;23129;49.662;8.448;2023-06-22T10:13:13;100366.34;;;37.86;39.87
37238;BME280;23129;49.662;8.448;2023-06-22T10:15:42;100358.13;;;38.11;39.26
37238;BME280;23129;49.662;8.448;2023-06-22T10:18:12;100355.91;;;38.01;38.73
37238;BME280;23129;49.662;8.448;2023-06-22T10:20:41;100353.44;;;37.93;38.53
37238;BME280;23129;49.662;8.448;2023-06-22T10:23:10;100339.25;;;38.03;37.95
37238;BME280;23129;49.662;8.448;2023-06-22T10:25:40;100335.53;;;38.16;37.37
37238;BME280;23129;49.662;8.448;2023-06-22T10:28:08;100335.72;;;38.21;36.98
37238;BME280;23129;49.662;8.448;2023-06-22T10:30:37;100339.19;;;38.28;36.79
37238;BME280;23129;49.662;8.448;2023-06-22T10:33:05;100332.66;;;38.29;36.37
37238;BME280;23129;49.662;8.448;2023-06-22T10:35:34;100331.72;;;38.35;36.03
37238;BME280;23129;49.662;8.448;2023-06-22T10:38:04;100328.06;;;38.23;35.83
37238;BME280;23129;49.662;8.448;2023-06-22T10:40:33;100310.06;;;38.15;35.68
37238;BME280;23129;49.662;8.448;2023-06-22T10:43:03;100310.81;;;38.22;35.26
37238;BME280;23129;49.662;8.448;2023-06-22T10:45:31;100295.97;;;38.30;35.43
37238;BME280;23129;49.662;8.448;2023-06-22T10:48:00;100287.75;;;38.48;34.91
37238;BME280;23129;49.662;8.448;2023-06-22T10:50:29;100287.41;;;38.75;34.52
37238;BME280;23129;49.662;8.448;2023-06-22T10:52:58;100276.66;;;39.03;34.19
37238;BME280;23129;49.662;8.448;2023-06-22T10:55:27;100277.03;;;38.95;34.18
37238;BME280;23129;49.662;8.448;2023-06-22T10:58:14;100272.13;;;38.97;34.56
37238;BME280;23129;49.662;8.448;2023-06-22T11:00:43;100275.88;;;39.15;34.19
37238;BME280;23129;49.662;8.448;2023-06-22T11:03:11;100280.97;;;39.41;33.87
37238;BME280;23129;49.662;8.448;2023-06-22T11:05:41;100278.38;;;39.70;33.35
37238;BME280;23129;49.662;8.448;2023-06-22T11:08:10;100273.59;;;40.01;32.95
37238;BME280;23129;49.662;8.448;2023-06-22T11:10:38;100265.06;;;40.26;32.91
37238;BME280;23129;49.662;8.448;2023-06-22T11:13:07;100269.34;;;40.45;32.25
37238;BME280;23129;49.662;8.448;2023-06-22T11:15:40;100279.56;;;40.61;32.38
37238;BME280;23129;49.662;8.448;2023-06-22T11:18:09;100271.53;;;40.60;31.90
37238;BME280;23129;49.662;8.448;2023-06-22T11:20:37;100289.31;;;40.29;32.20
37238;BME280;23129;49.662;8.448;2023-06-22T11:23:08;100276.34;;;39.77;32.67
37238;BME280;23129;49.662;8.448;2023-06-22T11:25:37;100275.66;;;39.28;32.50
37238;BME280;23129;49.662;8.448;2023-06-22T11:28:05;100273.81;;;38.80;32.66
37238;BME280;23129;49.662;8.448;2023-06-22T11:30:34;100269.78;;;38.34;33.13
37238;BME280;23129;49.662;8.448;2023-06-22T11:33:04;100268.97;;;37.90;33.24
37238;BME280;23129;49.662;8.448;2023-06-22T11:35:33;100260.03;;;37.58;33.76
37238;BME280;23129;49.662;8.448;2023-06-22T11:38:01;100251.59;;;37.59;33.78
37238;BME280;23129;49.662;8.448;2023-06-22T11:40:31;100265.91;;;37.61;33.15
37238;BME280;23129;49.662;8.448;2023-06-22T11:42:59;100243.22;;;37.54;33.28
37238;BME280;23129;49.662;8.448;2023-06-22T11:45:28;100241.59;;;37.46;33.71
37238;BME280;23129;49.662;8.448;2023-06-22T11:47:57;100236.38;;;37.63;33.47
37238;BME280;23129;49.662;8.448;2023-06-22T11:50:28;100250.94;;;37.82;33.23
37238;BME280;23129;49.662;8.448;2023-06-22T11:52:58;100250.88;;;37.89;33.02
37238;BME280;23129;49.662;8.448;2023-06-22T11:55:26;100248.94;;;38.14;32.76
37238;BME280;23129;49.662;8.448;2023-06-22T11:57:56;100250.66;;;38.27;32.74
37238;BME280;23129;49.662;8.448;2023-06-22T12:00:27;100250.84;;;38.32;32.57
37238;BME280;23129;49.662;8.448;2023-06-22T12:02:57;100243.91;;;38.48;32.39
37238;BME280;23129;49.662;8.448;2023-06-22T12:05:28;100249.19;;;38.62;32.34
37238;BME280;23129;49.662;8.448;2023-06-22T12:07:57;100245.56;;;38.49;32.58
37238;BME280;23129;49.662;8.448;2023-06-22T12:10:26;100241.31;;;38.17;32.82
37238;BME280;23129;49.662;8.448;2023-06-22T12:12:56;100241.28;;;37.80;33.36
37238;BME280;23129;49.662;8.448;2023-06-22T12:15:27;100242.31;;;37.60;33.58
37238;BME280;23129;49.662;8.448;2023-06-22T12:17:55;100235.72;;;37.43;33.97
37238;BME280;23129;49.662;8.448;2023-06-22T12:20:24;100234.88;;;37.17;33.96
37238;BME280;23129;49.662;8.448;2023-06-22T12:22:54;100233.13;;;36.98;33.86
37238;BME280;23129;49.662;8.448;2023-06-22T12:25:25;100237.91;;;36.71;34.39
37238;BME280;23129;49.662;8.448;2023-06-22T12:27:54;100224.53;;;36.56;34.42
37238;BME280;23129;49.662;8.448;2023-06-22T12:30:23;100232.56;;;36.38;34.49
37238;BME280;23129;49.662;8.448;2023-06-22T12:32:51;100238.69;;;36.33;35.16
37238;BME280;23129;49.662;8.448;2023-06-22T12:35:23;100250.66;;;36.39;34.69
37238;BME280;23129;49.662;8.448;2023-06-22T12:37:53;100241.78;;;36.56;34.36
37238;BME280;23129;49.662;8.448;2023-06-22T12:40:22;100241.56;;;36.90;34.29
37238;BME280;23129;49.662;8.448;2023-06-22T12:42:51;100236.44;;;37.32;33.47
37238;BME280;23129;49.662;8.448;2023-06-22T12:45:19;100239.28;;;37.68;33.47
37238;BME280;23129;49.662;8.448;2023-06-22T12:47:50;100238.56;;;37.98;33.28
37238;BME280;23129;49.662;8.448;2023-06-22T12:50:19;100243.97;;;38.23;32.66
37238;BME280;23129;49.662;8.448;2023-06-22T12:52:47;100234.97;;;38.34;32.86
37238;BME280;23129;49.662;8.448;2023-06-22T12:55:17;100230.66;;;38.27;33.09
37238;BME280;23129;49.662;8.448;2023-06-22T12:57:46;100237.13;;;38.14;32.81
37238;BME280;23129;49.662;8.448;2023-06-22T13:00:15;100238.34;;;38.18;33.00
37238;BME280;23129;49.662;8.448;2023-06-22T13:02:44;100243.28;;;38.28;32.47